createdAt,value
2023-04-25T00:02:09.930Z,3.45
2023-04-25T00:04:36.777Z,3.92
2023-04-25T00:07:03.567Z,4.00
2023-04-25T00:09:30.484Z,3.53
2023-04-25T00:11:58.323Z,3.72
2023-04-25T00:14:24.809Z,3.83
2023-04-25T00:16:51.898Z,3.95
2023-04-25T00:19:18.436Z,3.92
2023-04-25T00:21:44.958Z,3.63
2023-04-25T00:24:11.424Z,3.78
2023-04-25T00:26:37.951Z,3.65
2023-04-25T00:29:05.817Z,3.63
2023-04-25T00:31:32.347Z,3.50
2023-04-25T00:33:58.875Z,4.45
2023-04-25T00:36:25.484Z,3.63
2023-04-25T00:38:51.962Z,4.05
2023-04-25T00:41:19.488Z,4.40
2023-04-25T00:43:47.241Z,3.83
2023-04-25T00:46:15.143Z,3.72
2023-04-25T00:48:41.677Z,4.55
2023-04-25T00:51:08.577Z,3.15
2023-04-25T00:53:35.166Z,3.65
2023-04-25T00:56:01.694Z,4.25
2023-04-25T00:58:28.257Z,3.80
2023-04-25T01:00:55.811Z,4.32
2023-04-25T01:03:24.061Z,3.78
2023-04-25T01:05:51.866Z,3.50
2023-04-25T01:08:18.382Z,3.67
2023-04-25T01:10:44.943Z,3.75
2023-04-25T01:13:11.613Z,3.50
2023-04-25T01:15:38.089Z,4.00
2023-04-25T01:18:07.117Z,4.38
2023-04-25T01:20:35.114Z,3.28
2023-04-25T01:23:03.355Z,4.03
2023-04-25T01:25:30.623Z,4.07
2023-04-25T01:27:58.087Z,4.03
2023-04-25T01:30:25.909Z,3.60
2023-04-25T01:32:53.473Z,3.28
2023-04-25T01:35:20.040Z,3.17
2023-04-25T01:37:46.535Z,3.58
2023-04-25T01:40:14.493Z,3.53
2023-04-25T01:42:43.288Z,4.25
2023-04-25T01:45:11.417Z,3.72
2023-04-25T01:47:38.469Z,3.90
2023-04-25T01:50:06.575Z,3.40
2023-04-25T01:52:33.126Z,4.20
2023-04-25T01:55:01.992Z,4.00
2023-04-25T01:57:29.829Z,3.60
2023-04-25T02:00:00.423Z,4.22
2023-04-25T02:02:27.121Z,3.85
2023-04-25T02:04:53.720Z,3.58
2023-04-25T02:07:20.221Z,3.85
2023-04-25T02:09:46.732Z,3.80
2023-04-25T02:12:13.355Z,3.40
2023-04-25T02:14:41.223Z,3.17
2023-04-25T02:17:07.890Z,3.53
2023-04-25T02:19:34.515Z,3.63
2023-04-25T02:22:01.066Z,3.20
2023-04-25T02:24:27.631Z,3.38
2023-04-25T02:26:54.267Z,3.35
2023-04-25T02:29:20.770Z,3.50
2023-04-25T02:31:48.754Z,3.28
2023-04-25T02:34:15.432Z,3.13
2023-04-25T02:36:41.983Z,4.15
2023-04-25T02:39:08.499Z,3.70
2023-04-25T02:41:34.997Z,4.05
2023-04-25T02:44:01.513Z,3.42
2023-04-25T02:46:38.333Z,3.65
2023-04-25T02:49:07.103Z,3.83
2023-04-25T02:51:33.682Z,3.67
2023-04-25T02:54:00.427Z,3.53
2023-04-25T02:56:27.121Z,3.33
2023-04-25T02:58:53.791Z,4.07
2023-04-25T03:01:20.324Z,3.88
2023-04-25T03:03:46.895Z,3.72
2023-04-25T03:06:15.006Z,4.28
2023-04-25T03:08:41.496Z,4.03
2023-04-25T03:11:07.970Z,3.03
2023-04-25T03:13:34.484Z,3.75
2023-04-25T03:16:01.084Z,3.67
2023-04-25T03:18:27.697Z,3.08
2023-04-25T03:20:54.305Z,3.38
2023-04-25T03:23:22.196Z,3.90
2023-04-25T03:25:48.729Z,4.10
2023-04-25T03:28:15.300Z,3.47
2023-04-25T03:30:41.784Z,3.45
2023-04-25T03:33:08.380Z,3.95
2023-04-25T03:35:34.915Z,3.75
2023-04-25T03:38:01.455Z,3.35
2023-04-25T03:40:29.300Z,4.85
2023-04-25T03:42:55.881Z,4.47
2023-04-25T03:45:22.381Z,3.65
2023-04-25T03:47:48.941Z,3.25
2023-04-25T03:50:15.509Z,3.90
2023-04-25T03:52:42.159Z,3.78
2023-04-25T03:55:09.574Z,3.65
2023-04-25T03:57:37.406Z,3.30
2023-04-25T04:00:04.807Z,3.15
2023-04-25T04:02:31.413Z,4.25
2023-04-25T04:04:58.204Z,3.88
2023-04-25T04:07:24.894Z,3.92
2023-04-25T04:09:51.381Z,3.83
2023-04-25T04:12:17.894Z,4.07
2023-04-25T04:14:45.705Z,4.70
2023-04-25T04:17:12.234Z,2.88
2023-04-25T04:19:38.750Z,3.13
2023-04-25T04:22:05.321Z,3.58
2023-04-25T04:24:31.932Z,3.55
2023-04-25T04:26:58.406Z,3.75
2023-04-25T04:29:24.944Z,3.25
2023-04-25T04:31:52.818Z,2.92
2023-04-25T04:34:19.578Z,2.65
2023-04-25T04:36:46.315Z,3.20
2023-04-25T04:39:12.889Z,3.13
2023-04-25T04:41:39.762Z,2.83
2023-04-25T04:44:08.303Z,3.25
2023-04-25T04:46:35.595Z,3.78
2023-04-25T04:49:03.467Z,2.85
2023-04-25T04:51:30.019Z,3.25
2023-04-25T04:53:56.514Z,3.28
2023-04-25T04:56:23.005Z,3.58
2023-04-25T04:58:49.510Z,2.80
2023-04-25T05:01:16.062Z,3.67
2023-04-25T05:03:42.694Z,2.70
2023-04-25T05:06:10.682Z,3.47
2023-04-25T05:08:37.297Z,3.35
2023-04-25T05:11:04.137Z,4.05
2023-04-25T05:13:30.617Z,3.70
2023-04-25T05:15:57.154Z,3.75
2023-04-25T05:18:23.901Z,2.97
2023-04-25T05:20:50.449Z,3.40
2023-04-25T05:23:18.257Z,3.05
2023-04-25T05:25:44.725Z,3.08
2023-04-25T05:28:13.190Z,3.15
2023-04-25T05:30:40.238Z,3.75
2023-04-25T05:33:06.776Z,4.07
2023-04-25T05:35:33.432Z,3.50
2023-04-25T05:37:59.943Z,3.40
2023-04-25T05:40:28.070Z,3.97
2023-04-25T05:42:54.579Z,3.13
2023-04-25T05:45:21.130Z,4.07
2023-04-25T05:47:47.690Z,3.47
2023-04-25T05:50:14.250Z,3.80
2023-04-25T05:52:40.763Z,3.28
2023-04-25T05:55:07.761Z,3.15
2023-04-25T05:57:35.641Z,3.20
2023-04-25T06:00:02.244Z,3.13
2023-04-25T06:02:28.920Z,3.33
2023-04-25T06:04:55.688Z,2.78
2023-04-25T06:07:22.294Z,2.88
2023-04-25T06:09:48.857Z,3.30
2023-04-25T06:12:15.325Z,2.58
2023-04-25T06:14:43.188Z,2.70
2023-04-25T06:17:09.739Z,2.80
2023-04-25T06:19:36.998Z,2.72
2023-04-25T06:22:03.596Z,2.60
2023-04-25T06:24:30.180Z,1.90
2023-04-25T06:26:56.711Z,1.95
2023-04-25T06:29:23.257Z,2.38
2023-04-25T06:31:51.254Z,2.17
2023-04-25T06:34:17.867Z,1.85
2023-04-25T06:36:44.699Z,1.33
2023-04-25T06:39:11.541Z,2.88
2023-04-25T06:41:38.202Z,1.65
2023-04-25T06:44:04.748Z,2.47
2023-04-25T06:46:31.295Z,1.92
2023-04-25T06:48:59.196Z,2.88
2023-04-25T06:51:25.667Z,1.90
2023-04-25T06:53:52.159Z,2.03
2023-04-25T06:56:18.641Z,2.25
2023-04-25T06:58:45.119Z,1.27
2023-04-25T07:01:11.688Z,1.40
2023-04-25T07:03:38.495Z,1.13
2023-04-25T07:06:07.044Z,1.92
2023-04-25T07:08:33.577Z,1.70
2023-04-25T07:11:00.260Z,1.50
2023-04-25T07:13:26.750Z,2.03
2023-04-25T07:15:54.077Z,1.27
2023-04-25T07:18:22.089Z,1.48
2023-04-25T07:20:48.573Z,1.50
2023-04-25T07:23:16.409Z,1.45
2023-04-25T07:25:42.879Z,1.50
2023-04-25T07:28:09.373Z,1.63
2023-04-25T07:30:35.849Z,1.67
2023-04-25T07:33:02.421Z,1.73
2023-04-25T07:35:28.906Z,1.13
2023-04-25T07:37:55.406Z,1.55
2023-04-25T07:40:23.283Z,2.10
2023-04-25T07:42:49.948Z,1.40
2023-04-25T07:45:16.631Z,1.33
2023-04-25T07:47:43.238Z,1.30
2023-04-25T07:50:10.368Z,1.63
2023-04-25T07:52:36.892Z,1.25
2023-04-25T07:55:03.601Z,1.10
2023-04-25T07:57:31.457Z,1.58
2023-04-25T07:59:58.010Z,1.42
2023-04-25T08:02:24.615Z,1.23
2023-04-25T08:04:51.380Z,1.65
2023-04-25T08:07:17.937Z,1.33
2023-04-25T08:09:44.449Z,1.17
2023-04-25T08:12:10.975Z,1.10
2023-04-25T08:14:38.838Z,1.38
2023-04-25T08:17:05.481Z,1.50
2023-04-25T08:19:32.022Z,1.27
2023-04-25T08:21:58.545Z,1.10
2023-04-25T08:24:25.019Z,1.65
2023-04-25T08:26:52.721Z,1.00
2023-04-25T08:29:19.291Z,1.50
2023-04-25T08:31:47.295Z,1.92
2023-04-25T08:34:13.946Z,0.95
2023-04-25T08:36:40.627Z,1.13
2023-04-25T08:39:07.171Z,1.20
2023-04-25T08:41:34.228Z,0.90
2023-04-25T08:44:03.767Z,1.85
2023-04-25T08:46:31.922Z,1.38
2023-04-25T08:49:02.462Z,0.95
2023-04-25T08:51:32.852Z,1.40
2023-04-25T08:54:19.701Z,1.42
2023-04-25T08:56:58.063Z,1.02
2023-04-25T08:59:24.949Z,1.02
2023-04-25T09:01:51.570Z,0.90
2023-04-25T09:04:19.627Z,1.00
2023-04-25T09:06:46.225Z,0.90
2023-04-25T09:09:12.793Z,0.90
2023-04-25T09:11:39.303Z,1.00
2023-04-25T09:14:16.749Z,1.30
2023-04-25T09:17:00.533Z,1.25
2023-04-25T09:22:08.596Z,0.80
2023-04-25T09:24:37.171Z,0.90
2023-04-25T09:27:07.581Z,0.73
2023-04-25T09:29:35.492Z,1.10
2023-04-25T09:32:16.741Z,1.77
2023-04-25T09:34:48.363Z,1.50
2023-04-25T09:37:18.551Z,0.70
2023-04-25T09:39:45.997Z,1.13
2023-04-25T09:42:12.511Z,1.00
2023-04-25T09:44:43.510Z,1.27
2023-04-25T09:47:10.972Z,0.80
2023-04-25T09:49:40.595Z,0.70
2023-04-25T09:52:08.988Z,0.77
2023-04-25T09:54:35.748Z,1.25
2023-04-25T09:57:10.733Z,1.10
2023-04-25T09:59:40.123Z,0.73
2023-04-25T10:02:08.324Z,0.82
2023-04-25T10:04:36.507Z,0.90
2023-04-25T10:07:06.072Z,1.08
2023-04-25T10:09:37.119Z,0.70
2023-04-25T10:12:03.995Z,1.20
2023-04-25T10:14:30.890Z,0.82
2023-04-25T10:16:58.602Z,1.38
2023-04-25T10:19:25.508Z,1.40
2023-04-25T10:21:56.680Z,0.82
2023-04-25T10:24:23.888Z,0.70
2023-04-25T10:26:52.305Z,1.63
2023-04-25T10:29:26.593Z,0.75
2023-04-25T10:31:53.558Z,0.73
2023-04-25T10:34:24.451Z,0.70
2023-04-25T10:36:52.091Z,0.73
2023-04-25T10:39:23.710Z,0.85
2023-04-25T10:41:57.136Z,1.10
2023-04-25T10:44:23.717Z,0.98
2023-04-25T10:46:50.357Z,0.90
2023-04-25T10:49:32.756Z,0.95
2023-04-25T10:52:19.512Z,0.90
2023-04-25T10:54:49.748Z,0.80
2023-04-25T10:57:37.788Z,0.52
2023-04-25T11:00:10.539Z,0.52
2023-04-25T11:02:45.270Z,0.40
2023-04-25T11:05:21.453Z,0.30
2023-04-25T11:08:00.093Z,0.68
2023-04-25T11:10:32.351Z,0.30
2023-04-25T11:13:00.184Z,0.30
2023-04-25T11:15:27.293Z,0.70
2023-04-25T11:17:54.635Z,0.50
2023-04-25T11:20:22.718Z,0.70
2023-04-25T11:22:50.928Z,0.55
2023-04-25T11:25:18.826Z,1.33
2023-04-25T11:27:52.042Z,0.63
2023-04-25T11:30:21.647Z,0.80
2023-04-25T11:32:48.371Z,0.60
2023-04-25T11:35:14.963Z,0.60
2023-04-25T11:37:42.139Z,0.68
2023-04-25T11:40:10.020Z,0.60
2023-04-25T11:42:38.149Z,0.50
2023-04-25T11:45:05.742Z,0.82
2023-04-25T11:47:34.778Z,0.63
2023-04-25T11:50:01.728Z,0.70
2023-04-25T11:52:37.537Z,0.68
2023-04-25T11:55:05.900Z,0.80
2023-04-25T11:57:32.477Z,0.57
2023-04-25T12:00:06.865Z,0.77
2023-04-25T12:02:36.049Z,1.35
2023-04-25T12:05:15.952Z,0.82
2023-04-25T12:07:49.180Z,0.70
2023-04-25T12:10:19.281Z,0.65
2023-04-25T12:12:47.044Z,0.45
2023-04-25T12:15:15.546Z,0.60
2023-04-25T12:17:46.002Z,0.80
2023-04-25T12:20:14.893Z,1.05
2023-04-25T12:22:42.545Z,0.93
2023-04-25T12:25:10.030Z,0.95
2023-04-25T12:27:36.633Z,0.85
2023-04-25T12:30:05.086Z,1.02
2023-04-25T12:32:31.581Z,0.70
2023-04-25T12:34:59.612Z,1.40
2023-04-25T12:37:26.151Z,0.75
2023-04-25T12:39:52.741Z,0.63
2023-04-25T12:42:19.215Z,0.90
2023-04-25T12:44:45.688Z,0.82
2023-04-25T12:47:12.312Z,0.90
2023-04-25T12:49:38.887Z,0.60
2023-04-25T12:52:06.748Z,0.80
2023-04-25T12:54:33.230Z,0.60
2023-04-25T12:56:59.744Z,0.80
2023-04-25T12:59:26.233Z,0.43
2023-04-25T13:01:52.807Z,0.60
2023-04-25T13:04:19.438Z,0.60
2023-04-25T13:06:46.046Z,0.55
2023-04-25T13:09:13.973Z,0.57
2023-04-25T13:11:40.468Z,0.60
2023-04-25T13:14:06.988Z,0.63
2023-04-25T13:16:33.614Z,0.60
2023-04-25T13:19:00.204Z,0.52
2023-04-25T13:21:26.860Z,0.70
2023-04-25T13:23:53.834Z,0.43
2023-04-25T13:26:22.194Z,0.35
2023-04-25T13:28:48.764Z,0.50
2023-04-25T13:31:15.304Z,0.28
2023-04-25T13:33:41.817Z,0.70
2023-04-25T13:36:08.478Z,0.38
2023-04-25T13:38:35.047Z,0.20
2023-04-25T13:41:01.599Z,0.32
2023-04-25T13:43:29.568Z,0.40
2023-04-25T13:45:56.166Z,0.40
2023-04-25T13:48:22.807Z,0.50
2023-04-25T13:50:49.291Z,0.73
2023-04-25T13:53:15.779Z,0.85
2023-04-25T13:55:42.259Z,1.02
2023-04-25T13:58:09.039Z,0.73
2023-04-25T14:00:38.900Z,0.50
2023-04-25T14:03:05.581Z,0.55
2023-04-25T14:05:32.242Z,0.73
2023-04-25T14:08:00.433Z,0.30
2023-04-25T14:10:28.632Z,0.52
2023-04-25T14:12:55.156Z,0.45
2023-04-25T14:15:21.773Z,0.60
2023-04-25T14:17:50.287Z,0.40
2023-04-25T14:20:16.769Z,0.47
2023-04-25T14:22:43.247Z,0.40
2023-04-25T14:25:10.068Z,0.82
2023-04-25T14:27:36.566Z,0.40
2023-04-25T14:30:03.294Z,0.40
2023-04-25T14:32:29.824Z,0.40
2023-04-25T14:34:57.686Z,0.50
2023-04-25T14:37:24.213Z,0.40
2023-04-25T14:39:50.688Z,0.65
2023-04-25T14:42:17.231Z,0.50
2023-04-25T14:44:43.731Z,0.40
2023-04-25T14:47:10.287Z,0.57
2023-04-25T14:49:36.788Z,0.75
2023-04-25T14:52:04.873Z,0.90
2023-04-25T14:54:31.408Z,2.28
2023-04-25T14:56:57.905Z,0.70
2023-04-25T14:59:24.396Z,1.77
2023-04-25T15:01:51.766Z,1.00
2023-04-25T15:04:18.500Z,3.20
2023-04-25T15:06:45.178Z,0.88
2023-04-25T15:09:13.143Z,0.98
2023-04-25T15:11:39.839Z,0.88
2023-04-25T15:14:06.332Z,0.68
2023-04-25T15:16:32.872Z,0.60
2023-04-25T15:18:59.378Z,0.60
2023-04-25T15:21:25.956Z,0.40
2023-04-25T15:23:52.904Z,1.08
2023-04-25T15:26:20.902Z,0.55
2023-04-25T15:28:47.386Z,0.77
2023-04-25T15:31:13.873Z,0.50
2023-04-25T15:33:40.442Z,0.80
2023-04-25T15:36:07.287Z,0.88
2023-04-25T15:38:33.843Z,0.70
2023-04-25T15:41:00.417Z,0.93
2023-04-25T15:43:28.337Z,0.70
2023-04-25T15:45:55.120Z,0.93
2023-04-25T15:48:21.671Z,0.95
2023-04-25T15:50:48.228Z,0.80
2023-04-25T15:53:14.700Z,0.80
2023-04-25T15:55:41.194Z,0.80
2023-04-25T15:58:08.174Z,1.05
2023-04-25T16:00:36.845Z,0.70
2023-04-25T16:03:03.632Z,0.52
2023-04-25T16:05:30.456Z,0.80
2023-04-25T16:07:56.930Z,0.95
2023-04-25T16:10:23.486Z,0.75
2023-04-25T16:12:50.558Z,0.70
2023-04-25T16:15:17.260Z,0.60
2023-04-25T16:17:45.192Z,1.10
2023-04-25T16:20:12.766Z,0.77
2023-04-25T16:22:40.541Z,0.80
2023-04-25T16:25:07.678Z,0.77
2023-04-25T16:27:34.867Z,0.82
2023-04-25T16:30:01.385Z,0.85
2023-04-25T16:32:27.951Z,0.60
2023-04-25T16:34:56.955Z,0.80
2023-04-25T16:37:25.174Z,0.60
2023-04-25T16:39:51.635Z,0.60
2023-04-25T16:42:18.217Z,0.70
2023-04-25T16:44:44.824Z,0.80
2023-04-25T16:47:12.953Z,1.05
2023-04-25T16:49:41.614Z,0.47
2023-04-25T16:52:09.590Z,0.93
2023-04-25T16:54:36.108Z,1.17
2023-04-25T16:57:02.746Z,0.43
2023-04-25T16:59:29.272Z,0.73
2023-04-25T17:01:55.895Z,3.97
2023-04-25T17:04:22.496Z,0.55
2023-04-25T17:06:49.239Z,0.80
2023-04-25T17:09:17.108Z,0.70
2023-04-25T17:11:43.650Z,0.50
2023-04-25T17:14:10.153Z,0.50
2023-04-25T17:16:38.005Z,0.73
2023-04-25T17:19:04.713Z,0.70
2023-04-25T17:21:31.336Z,0.57
2023-04-25T17:23:57.816Z,0.60
2023-04-25T17:26:26.266Z,0.50
2023-04-25T17:28:54.104Z,1.67
2023-04-25T17:31:21.412Z,0.68
2023-04-25T17:33:48.398Z,0.80
2023-04-25T17:36:15.035Z,0.68
2023-04-25T17:38:41.557Z,0.60
2023-04-25T17:41:09.136Z,0.68
2023-04-25T17:43:37.026Z,1.00
2023-04-25T17:46:03.566Z,0.68
2023-04-25T17:48:30.148Z,0.65
2023-04-25T17:50:56.628Z,0.73
2023-04-25T17:53:23.166Z,0.52
2023-04-25T17:55:49.798Z,0.77
2023-04-25T17:58:16.693Z,0.70
2023-04-25T18:00:44.773Z,0.90
2023-04-25T18:03:11.372Z,0.90
2023-04-25T18:05:37.919Z,0.75
2023-04-25T18:08:04.644Z,0.60
2023-04-25T18:10:31.130Z,0.93
2023-04-25T18:12:57.653Z,0.90
2023-04-25T18:15:24.150Z,0.52
2023-04-25T18:17:52.107Z,0.50
2023-04-25T18:20:18.681Z,1.00
2023-04-25T18:22:45.455Z,0.82
2023-04-25T18:25:12.711Z,0.80
2023-04-25T18:27:40.299Z,0.60
2023-04-25T18:30:08.974Z,0.65
2023-04-25T18:32:35.983Z,1.17
2023-04-25T18:35:04.332Z,1.80
2023-04-25T18:37:30.819Z,0.45
2023-04-25T18:39:57.486Z,0.85
2023-04-25T18:42:24.096Z,0.82
2023-04-25T18:44:50.595Z,1.10
2023-04-25T18:47:17.082Z,0.95
2023-04-25T18:49:43.577Z,1.00
2023-04-25T18:52:11.607Z,0.85
2023-04-25T18:54:38.611Z,1.20
2023-04-25T18:57:05.487Z,0.95
2023-04-25T18:59:32.288Z,1.20
2023-04-25T19:01:58.924Z,1.35
2023-04-25T19:04:25.737Z,1.20
2023-04-25T19:06:52.331Z,1.10
2023-04-25T19:09:20.202Z,1.02
2023-04-25T19:11:46.722Z,1.45
2023-04-25T19:14:14.217Z,1.08
2023-04-25T19:16:40.729Z,0.90
2023-04-25T19:19:08.630Z,0.93
2023-04-25T19:21:35.480Z,1.50
2023-04-25T19:24:02.683Z,0.95
2023-04-25T19:26:30.909Z,1.02
2023-04-25T19:29:05.693Z,1.13
2023-04-25T19:31:32.701Z,1.23
2023-04-25T19:33:59.334Z,1.25
2023-04-25T19:36:25.898Z,1.15
2023-04-25T19:38:52.350Z,1.75
2023-04-25T19:41:18.845Z,1.15
2023-04-25T19:43:46.680Z,1.30
2023-04-25T19:46:13.357Z,1.70
2023-04-25T19:48:39.822Z,1.45
2023-04-25T19:51:06.372Z,1.77
2023-04-25T19:53:32.878Z,1.27
2023-04-25T19:55:59.358Z,1.40
2023-04-25T19:58:25.974Z,1.23
2023-04-25T20:00:53.794Z,1.40
2023-04-25T20:03:20.447Z,1.60
2023-04-25T20:05:47.008Z,1.38
2023-04-25T20:08:13.510Z,1.33
2023-04-25T20:10:39.992Z,1.10
2023-04-25T20:13:06.479Z,1.20
2023-04-25T20:15:32.995Z,1.25
2023-04-25T20:18:00.877Z,1.30
2023-04-25T20:20:27.507Z,1.00
2023-04-25T20:22:54.079Z,1.67
2023-04-25T20:25:20.911Z,1.30
2023-04-25T20:27:47.554Z,1.35
2023-04-25T20:30:14.861Z,1.25
2023-04-25T20:32:41.620Z,1.35
2023-04-25T20:35:10.002Z,1.13
2023-04-25T20:37:36.724Z,1.08
2023-04-25T20:40:05.435Z,1.10
2023-04-25T20:42:32.001Z,0.93
2023-04-25T20:44:58.589Z,1.63
2023-04-25T20:47:25.097Z,1.10
2023-04-25T20:49:51.603Z,1.25
2023-04-25T20:52:19.438Z,1.10
2023-04-25T20:54:46.167Z,1.38
2023-04-25T20:57:12.662Z,1.52
2023-04-25T20:59:39.206Z,1.20
2023-04-25T21:02:05.697Z,1.00
2023-04-25T21:04:32.256Z,1.25
2023-04-25T21:06:58.776Z,1.17
2023-04-25T21:09:26.680Z,1.10
2023-04-25T21:11:53.232Z,1.10
2023-04-25T21:14:19.717Z,1.13
2023-04-25T21:16:46.249Z,2.25
2023-04-25T21:19:12.727Z,0.98
2023-04-25T21:21:39.244Z,1.23
2023-04-25T21:24:06.471Z,0.80
2023-04-25T21:26:34.291Z,1.20
2023-04-25T21:29:00.812Z,1.05
2023-04-25T21:31:27.523Z,1.48
2023-04-25T21:33:54.076Z,1.10
2023-04-25T21:36:20.537Z,0.90
2023-04-25T21:38:47.920Z,1.25
2023-04-25T21:41:14.573Z,0.90
2023-04-25T21:43:42.412Z,1.05
2023-04-25T21:46:21.654Z,1.63
2023-04-25T21:48:49.430Z,1.52
2023-04-25T21:51:16.071Z,1.20
2023-04-25T21:53:42.592Z,1.52
2023-04-25T21:56:09.804Z,1.55
2023-04-25T21:58:36.282Z,1.33
2023-04-25T22:01:04.244Z,1.83
2023-04-25T22:03:32.755Z,1.50
2023-04-25T22:05:59.494Z,1.63
2023-04-25T22:08:26.003Z,1.58
2023-04-25T22:10:52.971Z,1.58
2023-04-25T22:13:19.430Z,1.50
2023-04-25T22:15:45.957Z,1.58
2023-04-25T22:18:14.040Z,1.25
2023-04-25T22:20:40.567Z,1.20
2023-04-25T22:23:07.112Z,1.77
2023-04-25T22:25:33.657Z,1.85
2023-04-25T22:28:00.261Z,2.35
2023-04-25T22:30:27.531Z,1.50
2023-04-25T22:32:55.329Z,1.50
2023-04-25T22:35:23.253Z,1.50
2023-04-25T22:37:49.719Z,1.70
2023-04-25T22:40:16.174Z,1.45
2023-04-25T22:42:43.054Z,1.83
2023-04-25T22:45:11.045Z,1.33
2023-04-25T22:47:38.372Z,1.83
2023-04-25T22:50:06.517Z,1.85
2023-04-25T22:52:34.850Z,1.70
2023-04-25T22:55:01.881Z,1.70
2023-04-25T22:57:28.662Z,1.65
2023-04-25T22:59:55.385Z,1.60
2023-04-25T23:02:22.010Z,1.80
2023-04-25T23:04:48.548Z,1.75
2023-04-25T23:07:15.070Z,2.03
2023-04-25T23:09:43.421Z,1.75
2023-04-25T23:12:09.910Z,1.90
2023-04-25T23:14:36.455Z,2.35
2023-04-25T23:17:03.025Z,2.10
2023-04-25T23:19:29.515Z,1.73
2023-04-25T23:21:56.025Z,1.88
2023-04-25T23:24:22.522Z,2.35
2023-04-25T23:26:50.355Z,2.17
2023-04-25T23:29:16.870Z,1.75
2023-04-25T23:31:43.339Z,1.80
2023-04-25T23:34:09.803Z,1.95
2023-04-25T23:36:36.330Z,2.05
2023-04-25T23:39:02.816Z,1.70
2023-04-25T23:41:29.313Z,1.65
2023-04-25T23:43:57.112Z,1.70
2023-04-25T23:46:23.679Z,1.73
2023-04-25T23:48:50.534Z,1.70
2023-04-25T23:51:17.229Z,1.45
2023-04-25T23:53:43.689Z,2.28
2023-04-25T23:56:10.180Z,2.03
2023-04-25T23:58:36.656Z,2.20
